La Farge, WI (54639)

11:22 AM CDT on August 28, 2015 (GMT -0500)
Haugrud Hollow | | Change Station
CLOSE
Current Station
Personal Weather Station
Location: La Farge, WI
Elevation: 940 ft
Nearby Weather Stations

Elev 940 ft 43.59 °N, 90.76 °W | Updated 7 minutes ago

Rain
Rain
62.8 °F
Feels Like 62.8 °F
N
0.7
Wind Variable Wind from South
Gusts 2.2 mph

Today
High -- | Low -- °F
--% Chance of Precip.
Yesterday
High -- | Low -- °F
Precip. -- in
6:21 AM 7:45 PM
Waxing Gibbous, 98% visible
Pressure 30.13 in
Visibility 7.0 miles
Clouds Mostly Cloudy 1300 ft
Mostly Cloudy 10000 ft
Dew Point 62 °F
Humidity 97%
Rainfall 0.00 in
Snow Depth Not available.
UV 4 out of 12
Pollen 3.70 out of 12
Air Quality Not available.
Flu Activity Not available.
METAR KY51 281615Z AUTO 17004KT 7SM BKN013 BKN100 17/17 A3013 RMK AO1 T01720172
Pressure 30.13 in
Visibility 7.0 miles
Clouds Mostly Cloudy 1300 ft
Mostly Cloudy 10000 ft
Dew Point 62 °F
Humidity 97%
Rainfall 0.00 in
Snow Depth Not available.
UV 4 out of 12
Pollen 3.70 out of 12
Air Quality Not available.
Flu Activity Not available.
METAR KY51 281615Z AUTO 17004KT 7SM BKN013 BKN100 17/17 A3013 RMK AO1 T01720172

10-Day Weather Forecast

×

Almanac

Astronomy

Aug. 28, 2015 Rise Set
Actual Time
Civil Twilight
Nautical Twilight
Astronomical Twilight
Moon
Length of Visible Light
Length of Day
Tomorrow will be .
, % of the Moon is Illuminated

Today's Extremes

State Highs State Lows

Community

WunderPhotos

Upload Photos

1,850,417 photos uploaded!

WunderBlogs® & News

Nearby

Air Quality

  Air Quality AQ Index Pollutant
Not available.

Snow Depth

Station Depth Elevation

Earthquake Activity

City Distance Mag. Time & Date
Minimum magnitude displayed is 2.5.

Coastal Water Temperatures

Place Temperature

Stations

Nearby Weather Stations

Station Location Temp. Windchill Dew Point Humidity Wind Precip. Elev Updated Type